Kitchell, Indiana
Current Conditions -  °F | °C
As of 2:55 PM on Wednesday 28 Jan 2015 (Local Time) from KI67 Reporting Station
Clear Clear  
Wind Chill: 29°   Ceiling: Unl
Heat Index: 36°   Visibility: 10mi
Dew Point: 18°   Wind: 8mph
Humidity: 48%   Direction: 160°SSE
Pressure: 30.28"   Gusts: NA
Location:  39.6086°N, 84.9137°W
Report Text: KI67 281955Z AUTO 16007KT 10SM CLR 02/M08 A3028 RMK AO1
Loading
Personal Weather Stations






























Interactive Weather Map New forecast layout! Learn more

10-Day Weather Forecast

Advertisements
Track Severe Weather on mobile